Time;durP1;ratioP1;P1;durP2;ratioP2;P2;SDS_P1;SDS_P2;PMS_P1;PMS_P2;Temp;Humidity;BMP_temperature;BMP_pressure;BME280_temperature;BME280_humidity;BME280_pressure;Samples;Min_cycle;Max_cycle;Signal;HPM_P1;HPM_P2
2023/03/21 00:02:06;;;;;;;29.40;20.42;;;8.20;99.90;;;;;;5013666;28;20694;-63
2023/03/21 00:04:34;;;;;;;25.42;19.63;;;8.10;99.90;;;;;;5013738;28;20735;-65
2023/03/21 00:07:01;;;;;;;27.33;20.10;;;8.10;99.90;;;;;;5013884;28;20294;-63
2023/03/21 00:09:27;;;;;;;31.60;19.35;;;8.10;99.90;;;;;;5033051;28;20202;-64
2023/03/21 00:11:54;;;;;;;28.60;19.15;;;8.10;99.90;;;;;;5014748;28;20225;-63
2023/03/21 00:14:22;;;;;;;28.20;20.25;;;8.10;99.90;;;;;;5013555;28;20306;-64
2023/03/21 00:16:50;;;;;;;30.63;21.27;;;8.10;99.90;;;;;;5013502;28;20230;-64
2023/03/21 00:19:18;;;;;;;25.08;19.25;;;8.10;99.90;;;;;;5013575;28;20203;-64
2023/03/21 00:21:46;;;;;;;34.38;21.02;;;8.10;99.90;;;;;;5013226;28;20207;-64
2023/03/21 00:24:13;;;;;;;32.10;21.65;;;8.10;99.90;;;;;;5013633;28;20293;-64
2023/03/21 00:26:40;;;;;;;25.05;18.40;;;8.10;99.90;;;;;;5014995;28;20199;-65
2023/03/21 00:29:07;;;;;;;26.70;20.20;;;8.10;99.90;;;;;;5017377;28;20203;-63
2023/03/21 00:31:33;;;;;;;33.17;20.20;;;8.20;99.90;;;;;;5017459;28;20199;-63
2023/03/21 00:34:01;;;;;;;24.02;18.20;;;8.20;99.90;;;;;;5017370;28;20310;-63
2023/03/21 00:36:28;;;;;;;26.95;19.50;;;8.20;99.90;;;;;;5017144;28;20704;-64
2023/03/21 00:38:56;;;;;;;25.75;19.40;;;8.20;99.90;;;;;;5016975;28;20583;-63
2023/03/21 00:41:23;;;;;;;27.85;18.40;;;8.20;99.90;;;;;;5017290;28;20198;-62
2023/03/21 00:43:50;;;;;;;24.98;19.42;;;8.30;99.90;;;;;;5017012;28;20230;-63
2023/03/21 00:46:17;;;;;;;28.70;19.23;;;8.30;99.90;;;;;;5017117;28;20199;-62
2023/03/21 00:48:44;;;;;;;26.60;19.90;;;8.30;99.90;;;;;;5017517;28;20214;-65
2023/03/21 00:51:14;;;;;;;27.60;19.90;;;8.30;99.90;;;;;;5017140;28;20199;-63
2023/03/21 00:53:41;;;;;;;29.58;18.77;;;8.30;99.90;;;;;;5017061;28;20229;-64
2023/03/21 00:56:09;;;;;;;23.83;18.05;;;8.30;99.90;;;;;;5016834;28;20219;-65
2023/03/21 00:58:36;;;;;;;26.60;18.65;;;8.30;99.90;;;;;;5016714;28;20214;-64
2023/03/21 01:01:05;;;;;;;28.70;18.13;;;8.30;99.90;;;;;;5016496;28;20214;-64
2023/03/21 01:03:41;;;;;;;26.45;18.98;;;8.30;99.90;;;;;;5016692;28;20285;-64
2023/03/21 01:06:12;;;;;;;24.10;19.23;;;8.20;99.90;;;;;;5016749;28;20187;-64
2023/03/21 01:08:41;;;;;;;25.65;19.00;;;8.20;99.90;;;;;;5016741;28;20191;-64
2023/03/21 01:11:11;;;;;;;23.50;17.95;;;8.20;99.90;;;;;;5016716;28;20277;-64
2023/03/21 01:13:38;;;;;;;33.88;19.95;;;8.20;99.90;;;;;;5016580;28;20241;-63
2023/03/21 01:16:08;;;;;;;25.08;18.55;;;8.30;99.90;;;;;;5016627;28;20328;-65
2023/03/21 01:18:36;;;;;;;24.70;19.15;;;8.30;99.90;;;;;;5016454;28;20214;-63
2023/03/21 01:21:08;;;;;;;25.55;19.20;;;8.30;99.90;;;;;;5017371;28;20209;-63
2023/03/21 01:23:35;;;;;;;24.35;17.55;;;8.30;99.90;;;;;;5016344;28;20230;-63
2023/03/21 01:26:02;;;;;;;22.80;17.02;;;8.30;99.90;;;;;;5015995;28;20205;-63
2023/03/21 01:28:31;;;;;;;24.90;18.13;;;8.30;99.90;;;;;;5015903;28;20199;-63
2023/03/21 01:31:00;;;;;;;22.60;17.48;;;8.20;99.90;;;;;;5016259;28;20266;-63
2023/03/21 01:33:27;;;;;;;23.85;18.80;;;8.20;99.90;;;;;;5016066;28;20310;-62
2023/03/21 01:35:54;;;;;;;31.85;19.30;;;8.20;99.90;;;;;;5016332;28;20235;-63
2023/03/21 01:38:21;;;;;;;25.10;18.40;;;8.20;99.90;;;;;;5016615;28;20203;-63
2023/03/21 01:40:50;;;;;;;27.05;18.92;;;8.20;99.90;;;;;;5018936;28;20261;-63
2023/03/21 01:43:23;;;;;;;26.58;21.77;;;8.20;99.90;;;;;;5020677;28;20226;-62
2023/03/21 01:46:39;;;;;;;33.25;20.20;;;8.20;99.90;;;;;;5019939;28;20644;-63
2023/03/21 01:49:14;;;;;;;28.80;18.55;;;8.20;99.90;;;;;;5031742;28;20183;-63
2023/03/21 01:51:44;;;;;;;30.27;19.83;;;8.30;99.90;;;;;;5017320;28;20202;-64
2023/03/21 01:54:15;;;;;;;26.00;19.75;;;8.30;99.90;;;;;;5019050;28;20223;-63
2023/03/21 01:56:45;;;;;;;28.30;20.23;;;8.30;99.90;;;;;;5022288;28;20209;-64
2023/03/21 01:59:20;;;;;;;30.83;18.65;;;8.30;99.90;;;;;;5018804;28;20573;-63
2023/03/21 02:01:47;;;;;;;24.90;19.70;;;8.30;99.90;;;;;;5019442;28;20186;-63
2023/03/21 02:04:21;;;;;;;27.35;20.63;;;8.30;99.90;;;;;;5017199;28;20230;-63
2023/03/21 02:06:52;;;;;;;30.05;19.85;;;8.40;99.90;;;;;;5017026;28;20187;-63
2023/03/21 02:09:22;;;;;;;25.85;18.90;;;8.40;99.90;;;;;;5016790;28;20192;-62
2023/03/21 02:11:50;;;;;;;27.65;18.50;;;8.40;99.90;;;;;;5016615;28;20666;-64
2023/03/21 02:14:19;;;;;;;28.90;19.88;;;8.40;99.90;;;;;;5016103;28;20229;-63
2023/03/21 02:16:53;;;;;;;32.92;19.67;;;8.40;99.90;;;;;;5015529;28;20712;-63
2023/03/21 02:19:59;;;;;;;33.40;19.52;;;8.40;99.90;;;;;;5015399;28;20274;-64
2023/03/21 02:22:52;;;;;;;26.08;18.05;;;8.40;99.90;;;;;;4982246;28;20707;-63
2023/03/21 02:25:56;;;;;;;23.85;17.02;;;8.40;99.90;;;;;;5015161;28;20270;-64
2023/03/21 02:28:27;;;;;;;26.17;18.65;;;8.40;99.90;;;;;;5016084;28;20191;-63
2023/03/21 02:31:14;;;;;;;23.60;18.17;;;8.40;99.90;;;;;;5015639;28;20187;-63
2023/03/21 02:34:16;;;;;;;27.60;19.23;;;8.40;99.90;;;;;;5015010;28;20222;-63
2023/03/21 02:36:57;;;;;;;25.73;18.73;;;8.50;99.90;;;;;;5015069;28;20207;-64
2023/03/21 02:39:29;;;;;;;27.67;19.83;;;8.50;99.90;;;;;;5016219;28;20191;-63
2023/03/21 02:42:05;;;;;;;21.40;17.25;;;8.50;99.90;;;;;;5017471;28;20203;-64
2023/03/21 02:44:40;;;;;;;31.67;19.58;;;8.50;99.90;;;;;;5016648;28;20577;-63
2023/03/21 02:47:11;;;;;;;25.58;18.90;;;8.60;99.90;;;;;;5017086;28;20205;-63
2023/03/21 02:49:43;;;;;;;25.25;18.33;;;8.60;99.90;;;;;;5016141;28;20187;-63
2023/03/21 02:52:17;;;;;;;25.50;19.23;;;8.60;99.90;;;;;;5017252;28;20672;-64
2023/03/21 02:54:47;;;;;;;21.67;17.90;;;8.60;99.90;;;;;;5016648;28;20700;-64
2023/03/21 02:57:16;;;;;;;26.92;18.02;;;8.60;99.90;;;;;;5014780;28;20222;-63
2023/03/21 02:59:43;;;;;;;21.92;17.15;;;8.60;99.90;;;;;;5014933;28;20302;-63
2023/03/21 03:02:11;;;;;;;21.65;17.25;;;8.60;99.90;;;;;;5015547;28;20230;-64
2023/03/21 03:04:38;;;;;;;23.42;17.58;;;8.60;99.90;;;;;;5015117;28;20225;-63
2023/03/21 03:07:18;;;;;;;27.77;19.38;;;8.60;99.90;;;;;;5014855;28;20199;-64
2023/03/21 03:10:06;;;;;;;23.98;18.92;;;8.60;99.90;;;;;;5014458;28;20187;-64
2023/03/21 03:12:41;;;;;;;19.02;16.45;;;8.70;99.90;;;;;;5014441;28;20203;-63
2023/03/21 03:15:20;;;;;;;22.35;16.45;;;8.70;99.90;;;;;;5013897;28;20222;-64
2023/03/21 03:17:52;;;;;;;22.63;17.52;;;8.70;99.90;;;;;;5014211;28;20211;-64
2023/03/21 03:20:30;;;;;;;22.27;15.90;;;8.70;99.90;;;;;;5014312;28;20536;-64
2023/03/21 03:23:09;;;;;;;21.98;16.88;;;8.70;99.90;;;;;;5024351;28;20188;-63
2023/03/21 03:25:42;;;;;;;20.95;16.38;;;8.70;99.90;;;;;;5019028;28;20188;-63
2023/03/21 03:28:09;;;;;;;23.77;16.25;;;8.70;99.90;;;;;;5014069;28;20187;-62
2023/03/21 03:30:37;;;;;;;21.42;15.73;;;8.70;99.90;;;;;;5014052;28;20199;-64
2023/03/21 03:33:08;;;;;;;21.13;15.80;;;8.70;99.90;;;;;;5014576;28;20233;-62
2023/03/21 03:35:35;;;;;;;22.15;16.95;;;8.70;99.90;;;;;;5013791;28;20206;-63
2023/03/21 03:38:06;;;;;;;23.67;15.60;;;8.70;99.90;;;;;;5013805;28;20596;-63
2023/03/21 03:40:40;;;;;;;23.42;15.27;;;8.60;99.90;;;;;;5013863;28;20671;-64
2023/03/21 03:43:11;;;;;;;24.98;15.98;;;8.60;99.90;;;;;;5013916;28;20222;-64
2023/03/21 03:45:43;;;;;;;20.80;14.93;;;8.70;99.90;;;;;;5013956;28;20195;-64
2023/03/21 03:48:18;;;;;;;18.45;14.75;;;8.70;99.90;;;;;;5013953;28;20187;-64
2023/03/21 03:50:49;;;;;;;22.70;15.43;;;8.70;99.90;;;;;;5013532;28;20277;-65
2023/03/21 03:53:21;;;;;;;21.83;15.25;;;8.70;99.90;;;;;;5013999;28;20218;-64
2023/03/21 03:55:49;;;;;;;23.60;14.38;;;8.70;99.90;;;;;;5013748;28;20637;-64
2023/03/21 03:58:18;;;;;;;18.90;15.70;;;8.70;99.90;;;;;;5013631;28;20227;-63
2023/03/21 04:00:46;;;;;;;21.80;15.18;;;8.70;99.90;;;;;;5013547;28;20272;-64
2023/03/21 04:03:13;;;;;;;18.75;14.90;;;8.70;99.90;;;;;;5013700;28;20223;-63
2023/03/21 04:05:40;;;;;;;21.63;15.30;;;8.70;99.90;;;;;;5013532;28;20210;-63
2023/03/21 04:11:24;;;;;;;23.40;14.60;;;8.80;99.90;;;;;;5124157;27;20603;-65
2023/03/21 04:13:51;;;;;;;22.65;15.15;;;8.70;99.90;;;;;;5091067;28;20224;-65
2023/03/21 04:16:18;;;;;;;22.58;15.75;;;8.70;99.90;;;;;;5090863;28;20200;-65
2023/03/21 04:18:45;;;;;;;21.75;15.07;;;8.70;99.90;;;;;;5090994;28;20200;-63
2023/03/21 04:21:13;;;;;;;19.10;14.23;;;8.70;99.90;;;;;;5090490;28;20678;-65
2023/03/21 04:23:40;;;;;;;21.63;15.02;;;8.80;99.90;;;;;;5090931;28;20216;-64
2023/03/21 04:26:07;;;;;;;19.85;15.32;;;8.80;99.90;;;;;;5091434;28;20208;-64
2023/03/21 04:28:36;;;;;;;21.90;15.38;;;8.80;99.90;;;;;;5090728;28;20197;-66
2023/03/21 04:31:05;;;;;;;21.55;15.10;;;8.70;99.90;;;;;;5090615;28;20709;-64
2023/03/21 04:33:37;;;;;;;18.48;14.43;;;8.70;99.90;;;;;;5097882;28;20216;-66
2023/03/21 04:36:05;;;;;;;20.75;14.27;;;8.80;99.90;;;;;;5092237;28;20283;-64
2023/03/21 04:38:33;;;;;;;18.95;15.15;;;8.80;99.90;;;;;;5090852;28;20247;-65
2023/03/21 04:41:01;;;;;;;20.02;14.35;;;8.80;99.90;;;;;;5090377;28;20692;-65
2023/03/21 04:43:28;;;;;;;18.27;14.00;;;8.80;99.90;;;;;;5090439;28;20227;-66
2023/03/21 04:45:56;;;;;;;18.58;14.88;;;8.70;99.90;;;;;;5090998;28;20200;-65
2023/03/21 04:48:24;;;;;;;19.58;14.32;;;8.70;99.90;;;;;;5090444;28;20200;-66
2023/03/21 04:50:51;;;;;;;21.98;16.50;;;8.70;99.90;;;;;;5090143;28;20758;-66
2023/03/21 04:53:18;;;;;;;19.05;13.65;;;8.70;99.90;;;;;;5090378;28;20610;-65
2023/03/21 04:55:45;;;;;;;17.05;14.13;;;8.70;99.90;;;;;;5091006;28;20204;-66
2023/03/21 04:58:12;;;;;;;19.85;15.57;;;8.70;99.90;;;;;;5107296;28;20203;-66
2023/03/21 05:00:39;;;;;;;16.85;14.15;;;8.70;99.90;;;;;;5090877;28;20208;-64
2023/03/21 05:03:08;;;;;;;20.23;14.65;;;8.70;99.90;;;;;;5090071;28;20217;-64
2023/03/21 05:05:35;;;;;;;19.13;14.50;;;8.80;99.90;;;;;;5090249;28;20258;-64
2023/03/21 05:08:02;;;;;;;18.98;14.63;;;8.80;99.90;;;;;;5090014;28;20205;-65
2023/03/21 05:10:29;;;;;;;21.73;14.88;;;8.80;99.90;;;;;;5089859;28;20225;-64
2023/03/21 05:12:56;;;;;;;20.75;15.60;;;8.80;99.90;;;;;;5090154;28;20196;-64
2023/03/21 05:15:23;;;;;;;22.77;15.43;;;8.80;99.90;;;;;;5089980;28;20200;-65
2023/03/21 05:17:49;;;;;;;20.38;14.85;;;8.80;99.90;;;;;;5089950;28;20205;-64
2023/03/21 05:20:18;;;;;;;23.25;15.55;;;8.90;99.90;;;;;;5090209;28;20206;-65
2023/03/21 05:22:48;;;;;;;27.05;15.63;;;8.90;99.90;;;;;;5076638;28;20223;-66
2023/03/21 05:25:16;;;;;;;17.58;13.68;;;8.90;99.90;;;;;;5076816;28;20195;-66
2023/03/21 05:27:44;;;;;;;25.13;15.30;;;8.90;99.90;;;;;;5076918;28;20326;-65
2023/03/21 05:30:13;;;;;;;19.08;14.32;;;8.90;99.90;;;;;;5076908;28;20213;-65
2023/03/21 05:32:40;;;;;;;18.92;14.43;;;8.90;99.90;;;;;;5077027;28;20207;-64
2023/03/21 05:35:08;;;;;;;18.02;13.88;;;8.90;99.90;;;;;;5079772;28;20225;-65
2023/03/21 05:37:37;;;;;;;21.65;15.65;;;8.90;99.90;;;;;;5082432;28;20549;-65
2023/03/21 05:40:05;;;;;;;18.15;13.57;;;8.90;99.90;;;;;;5083027;28;20199;-66
2023/03/21 05:42:32;;;;;;;22.88;13.60;;;8.90;99.90;;;;;;5080933;28;20200;-65
2023/03/21 05:44:59;;;;;;;17.13;13.60;;;9.00;99.90;;;;;;5078519;28;20213;-66
2023/03/21 05:47:26;;;;;;;19.80;15.20;;;9.00;99.90;;;;;;5080558;28;20211;-65
2023/03/21 05:49:53;;;;;;;18.25;14.27;;;9.00;99.90;;;;;;5078364;28;20229;-65
2023/03/21 05:52:20;;;;;;;18.55;12.98;;;9.00;99.90;;;;;;5065314;28;20229;-65
2023/03/21 05:54:48;;;;;;;17.20;13.02;;;9.00;99.90;;;;;;5082172;28;20252;-65
2023/03/21 05:57:17;;;;;;;19.20;14.38;;;9.00;99.90;;;;;;5081932;28;20219;-65
2023/03/21 05:59:44;;;;;;;22.58;14.27;;;9.10;99.90;;;;;;5079042;28;20225;-65
2023/03/21 06:02:11;;;;;;;16.95;14.15;;;9.10;99.90;;;;;;5085042;28;20273;-66
2023/03/21 06:04:38;;;;;;;18.17;14.40;;;9.10;99.90;;;;;;5065779;28;20353;-66
2023/03/21 06:07:05;;;;;;;22.25;15.20;;;9.10;99.90;;;;;;5065649;28;20198;-65
2023/03/21 06:09:32;;;;;;;21.50;15.38;;;9.10;99.90;;;;;;5064188;28;20257;-64
2023/03/21 06:12:00;;;;;;;21.85;16.30;;;9.20;99.90;;;;;;5065065;28;20205;-65
2023/03/21 06:14:27;;;;;;;17.90;15.10;;;9.20;99.90;;;;;;5061311;28;20648;-65
2023/03/21 06:16:54;;;;;;;20.60;15.50;;;9.20;99.90;;;;;;5057365;28;20209;-65
2023/03/21 06:19:21;;;;;;;21.73;16.05;;;9.20;99.90;;;;;;5056397;28;20202;-65
2023/03/21 06:21:49;;;;;;;25.55;16.42;;;9.30;99.90;;;;;;5056552;28;20194;-65
2023/03/21 06:24:16;;;;;;;19.08;16.05;;;9.30;99.90;;;;;;5056456;28;20320;-65
2023/03/21 06:26:43;;;;;;;19.35;14.75;;;9.30;99.90;;;;;;5055806;28;20202;-65
2023/03/21 06:29:11;;;;;;;25.85;17.08;;;9.30;99.90;;;;;;5055520;28;20297;-64
2023/03/21 06:31:38;;;;;;;23.38;16.85;;;9.30;99.90;;;;;;5064884;28;20290;-64
2023/03/21 06:34:05;;;;;;;22.85;16.75;;;9.30;99.90;;;;;;5064135;28;20222;-65
2023/03/21 06:36:35;;;;;;;23.35;16.10;;;9.30;99.90;;;;;;5061699;28;20547;-65
2023/03/21 06:39:02;;;;;;;21.35;16.25;;;9.30;99.90;;;;;;5073972;28;20685;-65
2023/03/21 06:41:29;;;;;;;28.33;17.75;;;9.40;99.90;;;;;;5071545;28;20200;-65
2023/03/21 06:43:56;;;;;;;25.40;17.52;;;9.40;99.90;;;;;;5072084;28;20312;-65
2023/03/21 06:46:24;;;;;;;21.40;16.15;;;9.40;99.90;;;;;;5055667;28;20689;-65
2023/03/21 06:48:51;;;;;;;22.67;16.02;;;9.40;99.90;;;;;;5056490;28;20201;-66
2023/03/21 06:51:18;;;;;;;22.83;16.20;;;9.40;99.90;;;;;;5075192;28;20217;-65
2023/03/21 06:53:45;;;;;;;23.70;16.90;;;9.50;99.90;;;;;;5074085;28;20315;-65
2023/03/21 06:56:13;;;;;;;27.40;17.05;;;9.50;99.90;;;;;;5073495;28;20634;-66
2023/03/21 06:58:40;;;;;;;22.08;18.70;;;9.50;99.90;;;;;;5066656;28;20202;-66
2023/03/21 07:01:08;;;;;;;25.40;17.60;;;9.50;99.90;;;;;;5054735;28;20201;-65
2023/03/21 07:03:36;;;;;;;24.88;17.42;;;9.60;99.90;;;;;;5054905;28;20308;-63
2023/03/21 07:06:10;;;;;;;23.88;16.08;;;9.70;99.90;;;;;;5065614;28;20201;-66
2023/03/21 07:08:37;;;;;;;28.75;17.48;;;9.80;99.90;;;;;;5074714;28;20186;-65
2023/03/21 07:11:05;;;;;;;22.55;17.05;;;9.80;99.90;;;;;;5061820;28;20660;-66
2023/03/21 07:13:32;;;;;;;26.67;17.40;;;9.80;99.90;;;;;;5054943;28;20221;-66
2023/03/21 07:16:00;;;;;;;25.90;15.88;;;9.90;99.90;;;;;;5053782;28;20206;-65
2023/03/21 07:18:27;;;;;;;29.33;17.33;;;9.90;99.90;;;;;;5054147;28;20206;-64
2023/03/21 07:20:55;;;;;;;23.90;16.80;;;10.00;99.90;;;;;;5055089;28;20208;-66
2023/03/21 07:23:24;;;;;;;26.13;17.27;;;10.10;99.90;;;;;;5055595;28;20572;-67
2023/03/21 07:25:52;;;;;;;23.90;16.13;;;10.10;99.90;;;;;;5055442;28;20553;-66
2023/03/21 07:28:20;;;;;;;29.27;17.03;;;10.20;99.90;;;;;;5055068;28;20201;-65
2023/03/21 07:30:53;;;;;;;22.67;15.40;;;10.20;99.90;;;;;;5055799;28;20480;-65
2023/03/21 07:33:21;;;;;;;26.70;15.47;;;10.40;99.90;;;;;;5054904;28;20710;-66
2023/03/21 07:35:49;;;;;;;18.77;14.17;;;10.40;99.90;;;;;;5055319;28;21040;-66
2023/03/21 07:38:18;;;;;;;23.70;15.30;;;10.50;99.90;;;;;;5054287;28;20448;-65
2023/03/21 07:40:45;;;;;;;22.40;14.20;;;10.70;99.90;;;;;;5054318;28;20447;-65
2023/03/21 07:43:14;;;;;;;19.83;13.67;;;10.80;99.90;;;;;;5054208;28;20505;-65
2023/03/21 07:45:42;;;;;;;22.03;14.87;;;10.90;99.90;;;;;;5054025;28;20468;-66
2023/03/21 07:48:11;;;;;;;24.97;14.60;;;11.00;99.90;;;;;;5053492;28;20444;-65
2023/03/21 07:50:39;;;;;;;23.33;13.27;;;11.10;99.90;;;;;;5054473;28;20503;-65
2023/03/21 07:53:06;;;;;;;19.03;13.57;;;11.20;99.90;;;;;;5053650;28;20855;-66
2023/03/21 07:55:34;;;;;;;20.07;13.20;;;11.10;99.90;;;;;;5053470;28;20443;-64
2023/03/21 07:58:01;;;;;;;20.83;14.10;;;11.20;99.90;;;;;;5054179;28;20515;-66
2023/03/21 08:00:28;;;;;;;20.43;14.00;;;11.30;99.90;;;;;;5053770;28;20444;-65
2023/03/21 08:02:57;;;;;;;14.30;12.30;;;11.40;99.90;;;;;;5053775;28;20531;-66
2023/03/21 08:05:25;;;;;;;23.73;12.90;;;11.50;99.90;;;;;;5053697;28;20535;-67
2023/03/21 08:07:52;;;;;;;20.10;13.80;;;11.60;99.90;;;;;;5054353;28;20448;-65
2023/03/21 08:10:19;;;;;;;23.90;14.27;;;11.60;99.90;;;;;;5073837;28;20458;-65
2023/03/21 08:12:48;;;;;;;16.40;12.40;;;11.60;99.90;;;;;;5054280;28;20444;-65
2023/03/21 08:15:16;;;;;;;22.73;13.83;;;11.70;99.90;;;;;;5053803;28;20452;-66
2023/03/21 08:17:44;;;;;;;19.20;13.20;;;11.70;99.90;;;;;;5053784;28;20464;-64
2023/03/21 08:20:13;;;;;;;16.00;11.73;;;11.70;99.90;;;;;;5054607;28;20494;-65
2023/03/21 08:22:40;;;;;;;28.27;14.20;;;11.60;99.90;;;;;;5053945;28;20452;-65
2023/03/21 08:25:13;;;;;;;18.10;12.13;;;11.60;99.90;;;;;;5053945;28;20559;-65
2023/03/21 08:27:40;;;;;;;19.43;13.10;;;11.50;99.90;;;;;;5053806;28;20956;-66
2023/03/21 08:30:11;;;;;;;17.63;12.57;;;11.50;99.90;;;;;;5053409;28;20452;-65
2023/03/21 08:32:37;;;;;;;24.13;12.57;;;11.50;99.90;;;;;;5053649;28;20472;-65
2023/03/21 08:35:07;;;;;;;17.93;11.30;;;11.60;99.90;;;;;;5053539;28;20472;-67
2023/03/21 08:37:34;;;;;;;17.63;12.33;;;11.60;99.90;;;;;;5054477;28;20455;-66
2023/03/21 08:40:03;;;;;;;22.60;12.50;;;11.60;99.90;;;;;;5054245;28;20456;-67
2023/03/21 08:42:48;;;;;;;;;;;;;;;;;;;;;
2023/03/21 08:45:17;;;;;;;16.57;12.30;;;11.50;99.90;;;;;;5055581;28;21017;-64
2023/03/21 08:47:45;;;;;;;19.97;13.57;;;11.50;99.90;;;;;;5053473;28;20521;-64
2023/03/21 08:50:14;;;;;;;17.63;13.33;;;11.50;99.90;;;;;;5053210;28;20505;-65
2023/03/21 08:52:41;;;;;;;21.97;12.90;;;11.50;99.90;;;;;;5053172;28;20476;-64
2023/03/21 08:55:09;;;;;;;24.10;13.93;;;11.50;99.90;;;;;;5052775;28;20491;-64
2023/03/21 08:57:36;;;;;;;15.80;12.23;;;11.60;99.90;;;;;;5055635;28;20448;-64
2023/03/21 09:00:09;;;;;;;21.87;12.23;;;11.60;99.90;;;;;;5056768;28;20448;-65
2023/03/21 09:02:39;;;;;;;23.07;13.67;;;11.60;99.90;;;;;;5057089;28;20432;-64
2023/03/21 09:05:06;;;;;;;19.17;12.50;;;11.60;99.90;;;;;;5057434;28;20470;-64
2023/03/21 09:07:35;;;;;;;18.03;13.07;;;11.60;99.90;;;;;;5056746;28;20535;-64
2023/03/21 09:10:02;;;;;;;17.70;11.70;;;11.70;99.90;;;;;;5056592;28;20456;-64
2023/03/21 09:12:28;;;;;;;14.60;11.37;;;11.80;99.90;;;;;;5057055;28;20853;-65
2023/03/21 09:14:55;;;;;;;16.47;11.77;;;11.90;99.90;;;;;;5056778;28;20464;-64
2023/03/21 09:17:22;;;;;;;14.90;11.97;;;11.90;99.90;;;;;;5056986;28;20534;-64
2023/03/21 09:19:52;;;;;;;14.97;11.60;;;11.90;99.90;;;;;;5056536;28;20905;-64
2023/03/21 09:22:22;;;;;;;15.57;11.53;;;11.90;99.90;;;;;;5056690;28;20466;-64
2023/03/21 09:24:49;;;;;;;18.40;11.40;;;11.90;99.90;;;;;;5056408;28;20471;-64
2023/03/21 09:27:16;;;;;;;19.10;12.20;;;11.90;99.90;;;;;;5056450;28;20786;-64
2023/03/21 09:29:44;;;;;;;17.60;11.47;;;12.00;99.90;;;;;;5056746;28;20479;-65
2023/03/21 09:32:12;;;;;;;19.10;11.50;;;12.10;99.90;;;;;;5056507;28;20483;-66
2023/03/21 09:34:42;;;;;;;15.00;11.53;;;12.20;99.90;;;;;;5056200;28;20464;-64
2023/03/21 09:37:11;;;;;;;15.13;11.30;;;12.40;99.90;;;;;;5061066;28;21032;-64
2023/03/21 09:39:39;;;;;;;16.60;12.13;;;12.50;99.90;;;;;;5063578;28;20501;-65
2023/03/21 09:42:26;;;;;;;16.63;11.33;;;12.60;99.90;;;;;;5064619;28;20440;-66
2023/03/21 09:45:03;;;;;;;20.67;10.30;;;12.70;99.90;;;;;;5066470;28;20475;-65
2023/03/21 09:47:33;;;;;;;19.10;12.60;;;12.80;99.90;;;;;;5069691;28;20435;-64
2023/03/21 09:50:06;;;;;;;18.13;11.30;;;12.90;99.90;;;;;;5064804;28;20444;-65
2023/03/21 09:52:42;;;;;;;16.33;11.00;;;12.90;99.90;;;;;;5066742;28;20486;-64
2023/03/21 09:55:18;;;;;;;14.77;10.73;;;12.90;99.90;;;;;;5066383;28;20475;-64
2023/03/21 09:57:48;;;;;;;14.60;9.60;;;13.10;99.90;;;;;;5058165;28;20423;-65
2023/03/21 10:00:24;;;;;;;16.17;9.57;;;13.10;99.90;;;;;;5056763;28;20484;-64
2023/03/21 10:02:58;;;;;;;16.93;11.00;;;13.20;99.90;;;;;;5056459;28;20420;-65
2023/03/21 10:05:28;;;;;;;14.47;9.90;;;13.30;99.90;;;;;;5057340;28;20452;-65
2023/03/21 10:07:59;;;;;;;17.30;10.40;;;13.20;99.90;;;;;;5056638;28;20539;-66
2023/03/21 10:10:29;;;;;;;16.40;10.57;;;13.10;99.90;;;;;;5055820;28;20452;-65
2023/03/21 10:12:56;;;;;;;13.57;10.33;;;13.00;99.90;;;;;;5056955;28;20487;-64
2023/03/21 10:15:26;;;;;;;13.93;9.70;;;12.90;99.90;;;;;;5055354;28;20458;-65
2023/03/21 10:17:59;;;;;;;14.23;10.17;;;12.80;99.90;;;;;;5055638;28;20444;-64
2023/03/21 10:20:29;;;;;;;23.10;11.80;;;12.70;99.90;;;;;;5055640;28;20439;-65
2023/03/21 10:22:59;;;;;;;19.83;11.80;;;12.70;99.90;;;;;;5056133;28;20440;-64
2023/03/21 10:25:31;;;;;;;16.73;11.07;;;12.70;99.90;;;;;;5078485;22;20545;-66
2023/03/21 10:27:59;;;;;;;16.90;10.73;;;12.70;99.90;;;;;;5056507;28;20428;-67
2023/03/21 10:30:35;;;;;;;15.90;11.43;;;12.70;99.90;;;;;;5055338;28;20440;-66
2023/03/21 10:33:04;;;;;;;19.63;11.67;;;12.60;99.90;;;;;;5054705;28;20907;-67
2023/03/21 10:35:35;;;;;;;21.40;11.97;;;12.60;99.90;;;;;;5066117;28;20498;-66
2023/03/21 10:38:04;;;;;;;17.37;12.07;;;12.70;99.90;;;;;;5074534;28;20431;-65
2023/03/21 10:40:31;;;;;;;16.00;10.60;;;12.80;99.90;;;;;;5074133;28;20530;-66
2023/03/21 10:43:17;;;;;;;17.80;11.67;;;12.80;99.90;;;;;;5074088;28;20535;-67
2023/03/21 10:45:46;;;;;;;16.30;10.93;;;12.80;99.90;;;;;;5074304;28;20467;-66
2023/03/21 10:48:13;;;;;;;17.40;10.63;;;12.70;99.90;;;;;;5074627;28;20459;-67
2023/03/21 10:50:41;;;;;;;15.10;10.60;;;12.70;99.90;;;;;;5075246;28;20819;-67
2023/03/21 10:53:18;;;;;;;16.73;10.93;;;12.70;99.90;;;;;;5074411;28;20481;-66
2023/03/21 10:55:48;;;;;;;19.97;9.87;;;12.70;99.90;;;;;;5073921;28;20912;-67
2023/03/21 10:58:23;;;;;;;15.90;10.70;;;12.70;99.90;;;;;;5073799;28;20447;-66
2023/03/21 11:00:56;;;;;;;17.47;10.60;;;12.70;99.90;;;;;;5074533;28;20889;-65
2023/03/21 11:03:28;;;;;;;16.53;9.97;;;12.60;99.90;;;;;;5074084;28;20419;-65
2023/03/21 11:05:58;;;;;;;15.00;10.03;;;12.60;99.90;;;;;;5075240;28;20516;-64
2023/03/21 11:08:27;;;;;;;14.93;10.50;;;12.40;99.90;;;;;;5073865;28;20432;-65
2023/03/21 11:11:00;;;;;;;15.33;9.87;;;12.30;99.90;;;;;;5073852;28;20439;-64
2023/03/21 11:13:34;;;;;;;22.10;11.93;;;12.30;99.90;;;;;;5074093;28;20455;-65
2023/03/21 11:16:06;;;;;;;14.43;9.47;;;12.20;99.90;;;;;;5073818;28;20471;-64
2023/03/21 11:18:39;;;;;;;19.63;10.10;;;12.20;99.90;;;;;;5074126;28;20531;-64
2023/03/21 11:21:08;;;;;;;17.23;9.73;;;12.20;99.90;;;;;;5075116;28;20435;-65
2023/03/21 11:23:42;;;;;;;12.90;8.73;;;12.20;99.90;;;;;;5075824;28;20476;-66
2023/03/21 11:26:11;;;;;;;12.53;9.83;;;12.20;99.90;;;;;;5074323;28;20532;-65
2023/03/21 11:28:40;;;;;;;16.73;10.03;;;12.30;99.90;;;;;;5074132;28;20443;-64
2023/03/21 11:31:08;;;;;;;14.07;8.70;;;12.30;99.90;;;;;;5074704;28;20443;-65
2023/03/21 11:33:39;;;;;;;15.93;9.60;;;12.20;99.90;;;;;;5074272;28;20482;-64
2023/03/21 11:36:24;;;;;;;18.30;10.80;;;12.20;99.90;;;;;;5073411;28;20995;-64
2023/03/21 11:38:56;;;;;;;17.10;9.53;;;12.20;99.90;;;;;;5074318;28;20430;-64
2023/03/21 11:41:25;;;;;;;14.70;10.10;;;12.20;99.90;;;;;;5073853;28;20995;-65
2023/03/21 11:43:54;;;;;;;14.33;9.40;;;12.20;99.90;;;;;;5073837;28;20811;-64
2023/03/21 11:46:24;;;;;;;12.23;10.27;;;12.20;99.90;;;;;;5074071;28;20463;-64
2023/03/21 11:48:51;;;;;;;18.70;10.13;;;12.30;99.90;;;;;;5074765;28;20446;-64
2023/03/21 11:51:34;;;;;;;16.70;11.00;;;12.30;99.90;;;;;;5074127;28;20542;-64
2023/03/21 11:54:10;;;;;;;18.13;10.00;;;12.20;99.90;;;;;;5074794;28;20515;-64
2023/03/21 11:56:42;;;;;;;13.90;9.30;;;12.10;99.90;;;;;;5074553;28;20439;-64
2023/03/21 11:59:33;;;;;;;14.77;10.10;;;12.00;99.90;;;;;;5075925;28;20448;-64
2023/03/21 12:02:22;;;;;;;18.00;10.37;;;11.80;99.90;;;;;;5075719;28;20424;-65
2023/03/21 12:04:54;;;;;;;14.33;10.13;;;11.60;99.90;;;;;;5074697;28;20459;-65
2023/03/21 12:07:36;;;;;;;26.10;11.20;;;11.50;99.90;;;;;;5075357;28;20436;-63
2023/03/21 12:10:25;;;;;;;17.23;11.10;;;11.50;99.90;;;;;;5074248;28;20900;-65
2023/03/21 12:13:01;;;;;;;17.17;10.47;;;11.50;99.90;;;;;;5074747;28;20537;-63
2023/03/21 12:15:35;;;;;;;15.97;11.30;;;11.50;99.90;;;;;;5074476;28;20557;-64
2023/03/21 12:18:12;;;;;;;18.27;11.60;;;11.50;99.90;;;;;;5074431;28;20510;-65
2023/03/21 12:20:43;;;;;;;18.70;11.30;;;11.50;99.90;;;;;;5074965;28;20463;-64
2023/03/21 12:23:29;;;;;;;18.83;11.10;;;11.50;99.90;;;;;;5073867;28;20434;-64
2023/03/21 12:26:06;;;;;;;16.20;10.87;;;11.50;99.90;;;;;;5073823;28;21011;-64
2023/03/21 12:28:41;;;;;;;16.73;10.47;;;11.60;99.90;;;;;;5074191;28;20427;-64
2023/03/21 12:31:15;;;;;;;16.43;11.50;;;11.60;99.90;;;;;;5074373;28;20507;-65
2023/03/21 12:33:55;;;;;;;16.37;11.60;;;11.70;99.90;;;;;;5078092;28;20498;-64
2023/03/21 12:36:45;;;;;;;15.87;11.33;;;11.70;99.90;;;;;;5075198;28;20558;-64
2023/03/21 12:39:23;;;;;;;14.97;9.83;;;11.70;99.90;;;;;;5053748;28;20459;-65
2023/03/21 12:42:06;;;;;;;16.10;12.27;;;11.80;99.90;;;;;;5065130;28;20443;-64
2023/03/21 12:44:35;;;;;;;19.60;10.93;;;11.80;99.90;;;;;;5073783;28;20472;-65
2023/03/21 12:47:07;;;;;;;16.27;11.97;;;11.80;99.90;;;;;;5072738;28;20900;-63
2023/03/21 12:49:38;;;;;;;19.20;12.50;;;11.80;99.90;;;;;;5076195;28;20458;-65
2023/03/21 12:52:09;;;;;;;19.87;12.20;;;11.80;99.90;;;;;;5056933;28;20475;-66
2023/03/21 12:54:39;;;;;;;18.37;11.70;;;11.80;99.90;;;;;;5056819;28;20464;-67